createdAt,value
2022-12-19T00:02:11.716Z,34.87
2022-12-19T00:07:16.305Z,39.23
2022-12-19T00:12:20.839Z,35.82
2022-12-19T00:17:25.488Z,34.68
2022-12-19T00:22:30.872Z,34.37
2022-12-19T00:27:39.145Z,34.68
2022-12-19T00:32:43.788Z,34.41
2022-12-19T00:37:49.715Z,36.64
2022-12-19T00:42:55.399Z,35.52
2022-12-19T00:48:01.911Z,35.36
2022-12-19T00:53:06.523Z,35.62
2022-12-19T00:58:11.385Z,35.04
2022-12-19T01:03:16.974Z,33.25
2022-12-19T01:08:21.625Z,34.02
2022-12-19T01:13:29.975Z,34.47
2022-12-19T01:18:35.337Z,33.33
2022-12-19T01:23:39.942Z,33.44
2022-12-19T01:28:45.133Z,33.33
2022-12-19T01:33:50.754Z,33.85
2022-12-19T01:39:00.026Z,32.89
2022-12-19T01:44:07.951Z,34.74
2022-12-19T01:49:34.660Z,33.32
2022-12-19T01:54:40.290Z,33.49
2022-12-19T01:59:53.982Z,32.93
2022-12-19T02:04:58.825Z,31.76
2022-12-19T02:10:05.206Z,33.61
2022-12-19T02:15:15.329Z,31.87
2022-12-19T02:20:36.346Z,31.62
2022-12-19T02:25:49.887Z,31.35
2022-12-19T02:31:23.772Z,32.02
2022-12-19T02:36:40.482Z,31.58
2022-12-19T02:41:56.934Z,32.44
2022-12-19T02:47:05.843Z,31.19
2022-12-19T02:52:22.244Z,31.68
2022-12-19T02:57:59.930Z,31.17
2022-12-19T03:03:46.740Z,31.47
2022-12-19T03:09:09.727Z,30.84
2022-12-19T03:14:20.406Z,31.21
2022-12-19T03:19:25.989Z,30.44
2022-12-19T03:24:31.060Z,30.50
2022-12-19T03:30:01.757Z,31.47
2022-12-19T03:35:28.782Z,30.25
2022-12-19T03:40:38.026Z,30.90
2022-12-19T03:45:57.603Z,30.29
2022-12-19T03:51:05.594Z,30.43
2022-12-19T03:56:35.554Z,31.19
2022-12-19T04:01:41.847Z,30.96
2022-12-19T04:06:51.197Z,29.93
2022-12-19T04:12:03.478Z,30.51
2022-12-19T04:17:26.291Z,30.46
2022-12-19T04:22:46.370Z,30.84
2022-12-19T04:27:55.907Z,30.51
2022-12-19T04:33:02.149Z,30.26
2022-12-19T04:38:08.062Z,30.12
2022-12-19T04:43:14.085Z,30.57
2022-12-19T04:48:20.689Z,29.83
2022-12-19T04:53:27.228Z,29.88
2022-12-19T04:58:34.248Z,29.73
2022-12-19T05:03:40.508Z,30.01
2022-12-19T05:08:47.369Z,30.12
2022-12-19T05:13:54.718Z,29.29
2022-12-19T05:19:00.046Z,30.03
2022-12-19T05:24:05.468Z,30.20
2022-12-19T05:29:10.970Z,29.44
2022-12-19T05:34:16.237Z,29.65
2022-12-19T05:39:21.558Z,29.36
2022-12-19T05:44:27.119Z,29.71
2022-12-19T05:49:32.442Z,29.66
2022-12-19T05:54:37.751Z,29.42
2022-12-19T05:59:42.992Z,29.44
2022-12-19T06:04:48.175Z,29.66
2022-12-19T06:09:53.825Z,29.59
2022-12-19T06:14:58.989Z,28.95
2022-12-19T06:20:04.240Z,29.84
2022-12-19T06:25:10.889Z,29.66
2022-12-19T06:30:17.505Z,29.72
2022-12-19T06:35:22.803Z,28.69
2022-12-19T06:40:46.007Z,28.97
2022-12-19T06:45:51.336Z,28.89
2022-12-19T06:50:56.783Z,29.60
2022-12-19T06:56:04.534Z,28.93
2022-12-19T07:01:09.914Z,29.35
2022-12-19T07:06:15.398Z,28.86
2022-12-19T07:11:22.821Z,28.31
2022-12-19T07:16:30.793Z,28.56
2022-12-19T07:21:36.385Z,28.50
2022-12-19T07:26:43.314Z,28.85
2022-12-19T07:31:48.596Z,28.51
2022-12-19T07:36:53.805Z,28.75
2022-12-19T07:42:00.240Z,28.77
2022-12-19T07:47:14.036Z,29.16
2022-12-19T07:52:19.364Z,29.02
2022-12-19T07:57:24.620Z,29.05
2022-12-19T08:02:30.741Z,29.25
2022-12-19T08:07:37.097Z,28.71
2022-12-19T08:12:42.385Z,29.05
2022-12-19T08:17:47.288Z,28.81
2022-12-19T08:22:52.743Z,28.77
2022-12-19T08:27:58.314Z,28.71
2022-12-19T08:33:08.710Z,28.74
2022-12-19T08:38:13.934Z,29.19
2022-12-19T08:43:18.736Z,28.83
2022-12-19T08:48:25.156Z,29.07
2022-12-19T08:53:33.438Z,29.15
2022-12-19T08:58:54.152Z,28.69
2022-12-19T09:05:02.835Z,29.35
2022-12-19T09:09:29.069Z,29.40
2022-12-19T09:14:38.161Z,29.07
2022-12-19T09:19:47.735Z,29.11
2022-12-19T09:24:54.878Z,29.80
2022-12-19T09:30:01.069Z,30.28
2022-12-19T09:35:07.233Z,30.24
2022-12-19T09:40:19.001Z,29.80
2022-12-19T09:45:31.752Z,30.60
2022-12-19T09:50:53.687Z,29.78
2022-12-19T09:56:01.533Z,30.44
2022-12-19T10:01:39.092Z,29.64
2022-12-19T10:07:22.357Z,30.65
2022-12-19T10:12:44.449Z,29.28
2022-12-19T10:18:11.202Z,30.28
2022-12-19T10:23:15.826Z,30.64
2022-12-19T10:28:57.336Z,30.36
2022-12-19T10:34:18.173Z,30.41
2022-12-19T10:39:35.229Z,29.66
2022-12-19T10:44:43.017Z,30.57
2022-12-19T10:49:47.652Z,30.62
2022-12-19T10:54:54.055Z,30.40
2022-12-19T11:00:19.282Z,30.65
2022-12-19T11:05:58.100Z,30.05
2022-12-19T11:12:03.944Z,31.59
2022-12-19T11:24:56.849Z,30.40
2022-12-19T11:29:31.805Z,30.81
2022-12-19T11:29:54.827Z,31.30
2022-12-19T11:33:20.547Z,30.01
2022-12-19T11:38:48.023Z,30.80
2022-12-19T11:44:00.127Z,31.16
2022-12-19T11:49:14.174Z,31.71
2022-12-19T11:54:22.804Z,30.23
2022-12-19T11:59:37.487Z,31.59
2022-12-19T12:05:25.688Z,31.28
2022-12-19T12:17:13.525Z,31.39
2022-12-19T12:30:32.613Z,31.26
2022-12-19T12:31:14.249Z,31.95
2022-12-19T12:31:53.067Z,31.80
2022-12-19T12:35:48.802Z,31.43
2022-12-19T12:39:33.648Z,31.99
2022-12-19T12:44:45.627Z,32.24
2022-12-19T12:50:06.765Z,31.88
2022-12-19T12:55:27.779Z,32.91
2022-12-19T13:00:36.122Z,33.43
2022-12-19T13:06:13.125Z,33.22
2022-12-19T13:11:40.011Z,33.12
2022-12-19T13:16:47.951Z,32.85
2022-12-19T13:22:13.029Z,32.04
2022-12-19T13:27:23.990Z,32.79
2022-12-19T13:32:35.921Z,33.33
2022-12-19T13:39:49.938Z,33.52
2022-12-19T13:43:39.432Z,34.08
2022-12-19T13:48:59.295Z,33.20
2022-12-19T13:54:04.569Z,33.61
2022-12-19T13:59:11.399Z,34.25
2022-12-19T14:04:28.993Z,33.23
2022-12-19T14:11:27.794Z,33.37
2022-12-19T14:15:26.964Z,33.91
2022-12-19T14:22:11.742Z,34.54
2022-12-19T14:28:19.132Z,34.14
2022-12-19T14:31:27.125Z,33.93
2022-12-19T14:36:34.999Z,33.75
2022-12-19T14:42:03.017Z,33.77
2022-12-19T14:54:04.030Z,34.88
2022-12-19T14:54:52.425Z,36.06
2022-12-19T14:58:54.699Z,34.13
2022-12-19T15:04:51.240Z,33.84
2022-12-19T15:10:58.089Z,32.93
2022-12-19T15:16:04.391Z,34.48
2022-12-19T15:21:17.787Z,34.81
2022-12-19T15:26:34.392Z,33.81
2022-12-19T15:31:48.278Z,34.58
2022-12-19T15:36:55.277Z,33.32
2022-12-19T15:42:02.951Z,33.62
2022-12-19T15:47:19.842Z,32.61
2022-12-19T15:52:28.691Z,33.00
2022-12-19T15:58:11.189Z,32.54
2022-12-19T16:03:25.416Z,33.49
2022-12-19T16:08:31.386Z,34.12
2022-12-19T16:13:38.059Z,34.33
2022-12-19T16:18:44.020Z,35.78
2022-12-19T16:23:49.935Z,34.95
2022-12-19T16:28:55.363Z,35.36
2022-12-19T16:34:00.927Z,34.68
2022-12-19T16:39:06.071Z,34.46
2022-12-19T16:44:21.166Z,33.75
2022-12-19T16:49:26.319Z,34.49
2022-12-19T16:54:31.374Z,34.08
2022-12-19T16:59:41.291Z,33.80
2022-12-19T17:04:52.088Z,33.32
2022-12-19T17:09:58.975Z,34.13
2022-12-19T17:15:05.441Z,36.46
2022-12-19T17:20:18.783Z,34.29
2022-12-19T17:25:29.643Z,34.35
2022-12-19T17:30:34.362Z,35.86
2022-12-19T17:35:38.536Z,34.61
2022-12-19T17:40:43.337Z,35.75
2022-12-19T17:45:49.170Z,35.35
2022-12-19T17:50:55.700Z,35.41
2022-12-19T17:56:01.067Z,35.16
2022-12-19T18:01:05.066Z,34.29
2022-12-19T18:06:12.481Z,34.12
2022-12-19T18:11:26.555Z,34.31
2022-12-19T18:16:33.241Z,34.55
2022-12-19T18:21:38.012Z,34.43
2022-12-19T18:26:42.727Z,35.15
2022-12-19T18:31:50.840Z,34.37
2022-12-19T18:36:55.532Z,33.81
2022-12-19T18:42:00.281Z,35.16
2022-12-19T18:47:04.879Z,36.42
2022-12-19T18:52:13.008Z,36.03
2022-12-19T18:57:18.515Z,36.22
2022-12-19T19:02:28.832Z,35.73
2022-12-19T19:07:35.575Z,36.38
2022-12-19T19:12:42.013Z,35.26
2022-12-19T19:17:54.134Z,36.45
2022-12-19T19:23:01.415Z,36.31
2022-12-19T19:28:09.017Z,36.50
2022-12-19T19:33:19.615Z,37.34
2022-12-19T19:38:24.969Z,36.42
2022-12-19T19:43:35.552Z,36.96
2022-12-19T19:48:44.680Z,36.55
2022-12-19T19:53:50.244Z,36.04
2022-12-19T19:58:56.379Z,36.24
2022-12-19T20:04:00.965Z,36.45
2022-12-19T20:09:06.229Z,36.15
2022-12-19T20:14:10.765Z,36.39
2022-12-19T20:19:16.835Z,36.19
2022-12-19T20:24:21.465Z,37.03
2022-12-19T20:29:26.757Z,36.55
2022-12-19T20:34:31.369Z,35.65
2022-12-19T20:39:36.102Z,36.33
2022-12-19T20:44:40.787Z,36.52
2022-12-19T20:49:45.865Z,36.98
2022-12-19T20:54:50.401Z,36.54
2022-12-19T20:59:54.958Z,35.20
2022-12-19T21:04:59.570Z,36.72
2022-12-19T21:10:04.254Z,37.19
2022-12-19T21:15:11.021Z,36.58
2022-12-19T21:20:16.904Z,36.42
2022-12-19T21:25:22.236Z,36.69
2022-12-19T21:30:26.829Z,40.05
2022-12-19T21:35:31.780Z,37.55
2022-12-19T21:40:37.958Z,36.93
2022-12-19T21:45:42.882Z,37.91
2022-12-19T21:50:49.226Z,36.50
2022-12-19T21:55:53.730Z,37.83
2022-12-19T22:01:08.306Z,36.94
2022-12-19T22:06:28.339Z,38.08
2022-12-19T22:11:33.606Z,36.57
2022-12-19T22:16:38.346Z,37.08
2022-12-19T22:21:43.060Z,36.10
2022-12-19T22:26:47.418Z,36.57
2022-12-19T22:31:52.078Z,36.47
2022-12-19T22:36:56.217Z,37.34
2022-12-19T22:42:01.781Z,36.94
2022-12-19T22:47:07.196Z,37.47
2022-12-19T22:52:11.799Z,37.27
2022-12-19T22:57:16.757Z,37.62
2022-12-19T23:02:21.596Z,37.87
2022-12-19T23:07:27.505Z,37.13
2022-12-19T23:12:32.081Z,37.48
2022-12-19T23:17:37.725Z,37.05
2022-12-19T23:22:43.379Z,37.74
2022-12-19T23:27:49.462Z,37.15
2022-12-19T23:32:54.047Z,38.30
2022-12-19T23:37:58.681Z,36.78
2022-12-19T23:43:03.311Z,36.49
2022-12-19T23:48:09.667Z,36.28
2022-12-19T23:53:14.270Z,36.77
2022-12-19T23:58:24.220Z,36.14
